Time;durP1;ratioP1;P1;durP2;ratioP2;P2;SDS_P1;SDS_P2;PMS_P1;PMS_P2;Temp;Humidity;BMP_temperature;BMP_pressure;BME280_temperature;BME280_humidity;BME280_pressure;Samples;Min_cycle;Max_cycle;Signal;HPM_P1;HPM_P2
2022/06/23 00:00:22;;;;;;;;;;;15.30;99.90;;;;;;5032917;28;19928;-70
2022/06/23 00:02:47;;;;;;;;;;;15.30;99.90;;;;;;5034175;28;19928;-70
2022/06/23 00:05:15;;;;;;;;;;;15.30;99.90;;;;;;5034272;28;20377;-69
2022/06/23 00:07:43;;;;;;;;;;;15.20;99.90;;;;;;5032826;28;20508;-70
2022/06/23 00:10:11;;;;;;;;;;;15.30;99.90;;;;;;5033076;28;19936;-70
2022/06/23 00:12:38;;;;;;;;;;;15.20;99.90;;;;;;5033733;28;19943;-70
2022/06/23 00:15:07;;;;;;;;;;;15.20;99.90;;;;;;5049310;28;20551;-70
2022/06/23 00:17:34;;;;;;;;;;;15.20;99.90;;;;;;5034099;28;20034;-70
2022/06/23 00:20:02;;;;;;;;;;;15.20;99.90;;;;;;5033569;28;19936;-70
2022/06/23 00:22:29;;;;;;;;;;;15.10;99.90;;;;;;5033675;28;19960;-70
2022/06/23 00:24:56;;;;;;;;;;;15.20;99.90;;;;;;5049249;28;19925;-69
2022/06/23 00:27:26;;;;;;;;;;;15.20;99.90;;;;;;5032181;28;19990;-69
2022/06/23 00:29:52;;;;;;;;;;;15.20;99.90;;;;;;5033935;28;20265;-69
2022/06/23 00:32:18;;;;;;;;;;;15.20;99.90;;;;;;5033516;28;20346;-69
2022/06/23 00:34:50;;;;;;;;;;;15.10;99.90;;;;;;5033551;28;19928;-69
2022/06/23 00:37:19;;;;;;;;;;;15.10;99.90;;;;;;5033247;28;19925;-69
2022/06/23 00:39:56;;;;;;;;;;;15.10;99.90;;;;;;5033585;28;19931;-69
2022/06/23 00:42:44;;;;;;;;;;;15.00;99.90;;;;;;5032272;28;20353;-69
2022/06/23 00:45:10;;;;;;;;;;;15.00;99.90;;;;;;5031545;28;19929;-69
2022/06/23 00:47:38;;;;;;;;;;;14.90;99.90;;;;;;5033434;28;20318;-69
2022/06/23 00:50:12;;;;;;;;;;;14.90;99.90;;;;;;5033298;28;19975;-69
2022/06/23 00:52:40;;;;;;;;;;;14.90;99.90;;;;;;5033203;28;20302;-69
2022/06/23 00:55:15;;;;;;;;;;;14.80;99.90;;;;;;5033339;28;19925;-69
2022/06/23 00:57:49;;;;;;;;;;;14.80;99.90;;;;;;5033338;28;19933;-69
2022/06/23 01:00:22;;;;;;;;;;;14.90;99.90;;;;;;5031070;28;19925;-69
2022/06/23 01:02:55;;;;;;;;;;;14.80;99.90;;;;;;5032832;28;19921;-69
2022/06/23 01:05:29;;;;;;;;;;;14.80;99.90;;;;;;5032059;28;20340;-69
2022/06/23 01:08:01;;;;;;;;;;;14.70;99.90;;;;;;5033215;28;19925;-69
2022/06/23 01:10:31;;;;;;;;;;;14.70;99.90;;;;;;5031749;28;19929;-70
2022/06/23 01:13:03;;;;;;;;;;;14.70;99.90;;;;;;5032617;28;19922;-69
2022/06/23 01:15:37;;;;;;;;;;;14.70;99.90;;;;;;5033176;28;20328;-69
2022/06/23 01:18:06;;;;;;;;;;;14.70;99.90;;;;;;5033018;28;19925;-69
2022/06/23 01:20:40;;;;;;;;;;;14.60;99.90;;;;;;5031793;28;19944;-69
2022/06/23 01:23:17;;;;;;;;;;;14.50;99.90;;;;;;5032427;28;20337;-69
2022/06/23 01:25:51;;;;;;;;;;;14.50;99.90;;;;;;5033063;28;20317;-69
2022/06/23 01:28:19;;;;;;;;;;;14.50;99.90;;;;;;5032875;28;19983;-69
2022/06/23 01:30:47;;;;;;;;;;;14.40;99.90;;;;;;5032837;28;20687;-69
2022/06/23 01:33:17;;;;;;;;;;;14.50;99.90;;;;;;5030907;28;19921;-69
2022/06/23 01:35:51;;;;;;;;;;;14.50;99.90;;;;;;5032347;28;19921;-69
2022/06/23 01:38:21;;;;;;;;;;;14.40;99.90;;;;;;5031221;28;19961;-69
2022/06/23 01:40:55;;;;;;;;;;;14.40;99.90;;;;;;5032541;28;19921;-69
2022/06/23 01:43:28;;;;;;;;;;;14.30;99.90;;;;;;5031914;28;19921;-69
2022/06/23 01:45:56;;;;;;;;;;;14.40;99.90;;;;;;5032314;28;20012;-69
2022/06/23 01:51:15;;;;;;;;;;;14.30;99.90;;;;;;5032345;28;19973;-69
2022/06/23 01:53:41;;;;;;;;;;;14.20;99.90;;;;;;5031661;28;20361;-69
2022/06/23 01:56:27;;;;;;;;;;;14.20;99.90;;;;;;5030608;28;19921;-69
2022/06/23 01:58:59;;;;;;;;;;;14.30;99.90;;;;;;5030330;28;19970;-69
2022/06/23 02:01:31;;;;;;;;;;;14.20;99.90;;;;;;5032064;28;19956;-69
2022/06/23 02:04:01;;;;;;;;;;;14.30;99.90;;;;;;5030172;28;20389;-69
2022/06/23 02:06:30;;;;;;;;;;;14.20;99.90;;;;;;5031924;28;20006;-69
2022/06/23 02:09:10;;;;;;;;;;;14.20;99.90;;;;;;5031988;28;19925;-69
2022/06/23 02:11:45;;;;;;;;;;;14.10;99.90;;;;;;5030568;28;19971;-69
2022/06/23 02:14:37;;;;;;;;;;;14.20;99.90;;;;;;5031639;28;19937;-69
2022/06/23 02:17:18;;;;;;;;;;;14.10;99.90;;;;;;5030384;28;20299;-69
2022/06/23 02:19:45;;;;;;;;;;;14.10;99.90;;;;;;5031736;28;19925;-69
2022/06/23 02:22:14;;;;;;;;;;;14.10;99.90;;;;;;5030544;28;19921;-69
2022/06/23 02:24:48;;;;;;;;;;;14.00;99.90;;;;;;5030077;28;19932;-69
2022/06/23 02:27:24;;;;;;;;;;;14.00;99.90;;;;;;5031613;28;19925;-69
2022/06/23 02:29:55;;;;;;;;;;;14.00;99.90;;;;;;5031270;28;19928;-68
2022/06/23 02:32:26;;;;;;;;;;;14.00;99.90;;;;;;5030947;28;19921;-68
2022/06/23 02:34:51;;;;;;;;;;;14.00;99.90;;;;;;5031738;28;20357;-68
2022/06/23 02:37:35;;;;;;;;;;;14.00;99.90;;;;;;5029846;28;20011;-69
2022/06/23 02:40:02;;;;;;;;;;;14.00;99.90;;;;;;5029863;28;19931;-69
2022/06/23 02:42:30;;;;;;;;;;;14.00;99.90;;;;;;5029370;28;20436;-69
2022/06/23 02:45:19;;;;;;;;;;;14.00;99.90;;;;;;5030048;28;20304;-70
2022/06/23 02:47:45;;;;;;;;;;;14.00;99.90;;;;;;5024239;28;20388;-69
2022/06/23 02:50:11;;;;;;;;;;;14.00;99.90;;;;;;5031151;28;19921;-70
2022/06/23 02:52:37;;;;;;;;;;;14.00;99.90;;;;;;5030808;28;19921;-70
2022/06/23 02:55:21;;;;;;;;;;;14.00;99.90;;;;;;5029686;28;20008;-69
2022/06/23 02:57:58;;;;;;;;;;;14.00;99.90;;;;;;5029948;28;19947;-69
2022/06/23 03:00:26;;;;;;;;;;;13.90;99.90;;;;;;5030014;28;20450;-70
2022/06/23 03:02:58;;;;;;;;;;;13.90;99.90;;;;;;5029272;28;19921;-70
2022/06/23 03:05:48;;;;;;;;;;;13.90;99.90;;;;;;5028699;28;19921;-69
2022/06/23 03:08:20;;;;;;;;;;;13.80;99.90;;;;;;5026393;28;19972;-69
2022/06/23 03:10:58;;;;;;;;;;;13.80;99.90;;;;;;5027081;28;20049;-70
2022/06/23 03:13:29;;;;;;;;;;;13.80;99.90;;;;;;5029839;28;19925;-70
2022/06/23 03:15:55;;;;;;;;;;;13.80;99.90;;;;;;5029561;28;19925;-70
2022/06/23 03:18:23;;;;;;;;;;;13.80;99.90;;;;;;5029974;28;19929;-70
2022/06/23 03:20:59;;;;;;;;;;;13.80;99.90;;;;;;5030212;28;19932;-69
2022/06/23 03:23:43;;;;;;;;;;;13.80;99.90;;;;;;5034549;28;20012;-68
2022/06/23 03:26:14;;;;;;;;;;;13.80;99.90;;;;;;5037546;28;19928;-69
2022/06/23 03:29:00;;;;;;;;;;;13.80;99.90;;;;;;5052997;28;19925;-68
2022/06/23 03:31:29;;;;;;;;;;;13.80;99.90;;;;;;5037057;28;20008;-69
2022/06/23 03:33:57;;;;;;;;;;;13.80;99.90;;;;;;5035873;28;20565;-69
2022/06/23 03:36:43;;;;;;;;;;;13.80;99.90;;;;;;5037126;28;19921;-69
2022/06/23 03:42:18;;;;;;;;;;;13.80;99.90;;;;;;5035505;28;19925;-69
2022/06/23 03:44:53;;;;;;;;;;;13.80;99.90;;;;;;5036105;28;19921;-70
2022/06/23 03:47:23;;;;;;;;;;;13.80;99.90;;;;;;5036764;28;19967;-69
2022/06/23 03:49:48;;;;;;;;;;;13.80;99.90;;;;;;5037218;28;19928;-69
2022/06/23 03:52:23;;;;;;;;;;;13.90;99.90;;;;;;5036880;28;19921;-68
2022/06/23 03:54:54;;;;;;;;;;;14.00;99.90;;;;;;5037008;28;19929;-69
2022/06/23 03:57:40;;;;;;;;;;;14.00;99.90;;;;;;5037215;28;19925;-69
2022/06/23 04:00:09;;;;;;;;;;;14.00;99.90;;;;;;5035592;28;19925;-69
2022/06/23 04:02:40;;;;;;;;;;;14.00;99.90;;;;;;5036859;28;19921;-69
2022/06/23 04:05:06;;;;;;;;;;;14.00;99.90;;;;;;5019428;28;20387;-70
2022/06/23 04:07:33;;;;;;;;;;;14.10;99.90;;;;;;5036009;28;19921;-70
2022/06/23 04:10:04;;;;;;;;;;;14.10;99.90;;;;;;5037266;28;19921;-71
2022/06/23 04:12:32;;;;;;;;;;;14.10;99.90;;;;;;5034685;28;21278;-70
2022/06/23 04:15:09;;;;;;;;;;;14.20;99.90;;;;;;5035592;28;20435;-70
2022/06/23 04:17:38;;;;;;;;;;;14.40;99.90;;;;;;5035979;28;20308;-70
2022/06/23 04:20:19;;;;;;;;;;;14.40;99.90;;;;;;5036914;28;19930;-70
2022/06/23 04:22:51;;;;;;;;;;;14.40;99.90;;;;;;5036617;28;19921;-70
2022/06/23 04:25:19;;;;;;;;;;;14.60;99.90;;;;;;5037080;28;20000;-70
2022/06/23 04:27:54;;;;;;;;;;;14.70;99.90;;;;;;5035783;28;19979;-70
2022/06/23 04:30:29;;;;;;;;;;;14.80;99.90;;;;;;5035511;28;20044;-70
2022/06/23 04:32:56;;;;;;;;;;;14.90;99.90;;;;;;5034003;28;19925;-70
2022/06/23 04:35:43;;;;;;;;;;;14.90;99.90;;;;;;5031450;28;19925;-70
2022/06/23 04:38:08;;;;;;;;;;;15.00;99.90;;;;;;5015819;28;19983;-70
2022/06/23 04:40:43;;;;;;;;;;;15.10;99.90;;;;;;5033635;28;19929;-70
2022/06/23 04:43:20;;;;;;;;;;;15.20;99.90;;;;;;5032054;28;20292;-70
2022/06/23 04:45:57;;;;;;;;;;;15.40;99.90;;;;;;5033487;28;20019;-70
2022/06/23 04:48:26;;;;;;;;;;;15.50;99.90;;;;;;5033606;28;19921;-70
2022/06/23 04:50:58;;;;;;;;;;;15.60;99.90;;;;;;5033369;28;20015;-70
2022/06/23 04:53:29;;;;;;;;;;;15.80;99.90;;;;;;5031786;28;20380;-70
2022/06/23 04:56:00;;;;;;;;;;;16.00;99.90;;;;;;5032042;28;19951;-70
2022/06/23 04:58:26;;;;;;;;;;;16.10;99.90;;;;;;5032126;28;20011;-70
2022/06/23 05:00:52;;;;;;;;;;;16.30;99.90;;;;;;5033306;28;19928;-70
2022/06/23 05:03:18;;;;;;;;;;;16.40;99.90;;;;;;5032854;28;19921;-70
2022/06/23 05:05:43;;;;;;;;;;;16.60;99.90;;;;;;5033094;28;20012;-70
2022/06/23 05:08:20;;;;;;;;;;;16.60;99.90;;;;;;5031693;28;19928;-70
2022/06/23 05:10:45;;;;;;;;;;;16.70;99.90;;;;;;5015581;28;20405;-70
2022/06/23 05:13:16;;;;;;;;;;;16.80;99.90;;;;;;5032662;28;20043;-70
2022/06/23 05:15:43;;;;;;;;;;;17.00;99.90;;;;;;5032959;28;19929;-70
2022/06/23 05:18:09;;;;;;;;;;;17.00;99.90;;;;;;5032839;28;20020;-70
2022/06/23 05:20:47;;;;;;;;;;;17.20;99.90;;;;;;5031826;28;20019;-70
2022/06/23 05:23:15;;;;;;;;;;;17.30;99.90;;;;;;5031048;28;19921;-68
2022/06/23 05:25:43;;;;;;;;;;;17.40;99.90;;;;;;5031451;28;19925;-69
2022/06/23 05:28:14;;;;;;;;;;;17.40;99.90;;;;;;5032721;28;19921;-70
2022/06/23 05:30:45;;;;;;;;;;;17.50;99.90;;;;;;5032649;28;20343;-69
2022/06/23 05:33:14;;;;;;;;;;;17.60;99.90;;;;;;5031285;28;19994;-69
2022/06/23 05:35:45;;;;;;;;;;;17.60;99.90;;;;;;5031343;28;19932;-69
2022/06/23 05:38:30;;;;;;;;;;;17.80;99.90;;;;;;5031175;28;19929;-69
2022/06/23 05:41:02;;;;;;;;;;;17.90;99.90;;;;;;5031395;28;19947;-69
2022/06/23 05:43:28;;;;;;;;;;;18.00;99.90;;;;;;5032149;28;19921;-70
2022/06/23 05:45:55;;;;;;;;;;;17.90;99.90;;;;;;5031972;28;20431;-70
2022/06/23 05:48:36;;;;;;;;;;;18.10;99.90;;;;;;5032507;28;20013;-70
2022/06/23 05:51:22;;;;;;;;;;;18.20;99.90;;;;;;5032284;28;19921;-69
2022/06/23 05:53:53;;;;;;;;;;;18.20;99.90;;;;;;5031900;28;19921;-70
2022/06/23 05:56:23;;;;;;;;;;;18.30;99.90;;;;;;5030777;28;20281;-70
2022/06/23 05:58:58;;;;;;;;;;;18.30;99.90;;;;;;5031791;28;20315;-70
2022/06/23 06:01:24;;;;;;;;;;;18.30;99.90;;;;;;5032116;28;20357;-70
2022/06/23 06:03:56;;;;;;;;;;;18.40;99.90;;;;;;5031713;28;19969;-70
2022/06/23 06:06:21;;;;;;;;;;;18.40;99.90;;;;;;5032237;28;20555;-70
2022/06/23 06:11:34;;;;;;;;;;;18.60;99.90;;;;;;5031699;28;20392;-70
2022/06/23 06:14:03;;;;;;;;;;;18.70;99.90;;;;;;5030400;28;19929;-70
2022/06/23 06:16:29;;;;;;;;;;;18.70;99.90;;;;;;5030363;28;19925;-70
2022/06/23 06:18:55;;;;;;;;;;;18.80;99.90;;;;;;5031917;28;19948;-70
2022/06/23 06:21:22;;;;;;;;;;;19.00;99.90;;;;;;5030383;28;19970;-70
2022/06/23 06:24:12;;;;;;;;;;;19.00;99.90;;;;;;5031330;28;20419;-70
2022/06/23 06:26:44;;;;;;;;;;;19.00;99.90;;;;;;5031686;28;19925;-70
2022/06/23 06:29:12;;;;;;;;;;;19.20;99.90;;;;;;5030246;28;19928;-70
2022/06/23 06:31:40;;;;;;;;;;;19.30;99.90;;;;;;5031796;28;19963;-70
2022/06/23 06:34:29;;;;;;;;;;;19.30;99.90;;;;;;5031270;28;19928;-70
2022/06/23 06:36:54;;;;;;;;;;;19.40;99.90;;;;;;5024544;28;19975;-70
2022/06/23 06:39:25;;;;;;;;;;;19.60;99.90;;;;;;5031311;28;19925;-70
2022/06/23 06:41:56;;;;;;;;;;;19.60;99.90;;;;;;5031528;28;19921;-70
2022/06/23 06:44:22;;;;;;;;;;;19.70;99.90;;;;;;5029819;28;19921;-70
2022/06/23 06:46:48;;;;;;;;;;;19.80;99.90;;;;;;5031445;28;19921;-70
2022/06/23 06:49:21;;;;;;;;;;;19.90;99.90;;;;;;5031254;28;19928;-70
2022/06/23 06:51:48;;;;;;;;;;;20.00;99.90;;;;;;5031255;28;19921;-70
2022/06/23 06:54:16;;;;;;;;;;;20.10;99.90;;;;;;5029571;28;19929;-70
2022/06/23 06:56:47;;;;;;;;;;;20.10;99.90;;;;;;5030378;28;19936;-71
2022/06/23 06:59:19;;;;;;;;;;;20.10;99.90;;;;;;5031173;28;20296;-71
2022/06/23 07:01:48;;;;;;;;;;;20.20;99.90;;;;;;5031161;28;19994;-71
2022/06/23 07:04:15;;;;;;;;;;;20.20;99.90;;;;;;5030703;28;19944;-69
2022/06/23 07:06:42;;;;;;;;;;;20.30;99.90;;;;;;5031225;28;19924;-68
2022/06/23 07:09:16;;;;;;;;;;;20.30;99.90;;;;;;5046528;28;20127;-69
2022/06/23 07:11:42;;;;;;;;;;;20.30;99.90;;;;;;5030890;28;20389;-70
2022/06/23 07:14:12;;;;;;;;;;;20.50;99.90;;;;;;5025575;28;19921;-68
2022/06/23 07:16:43;;;;;;;;;;;20.60;99.90;;;;;;5010836;28;19929;-69
2022/06/23 07:19:19;;;;;;;;;;;20.80;99.90;;;;;;5011359;28;19993;-69
2022/06/23 07:21:48;;;;;;;;;;;21.00;99.90;;;;;;5011257;28;19921;-69
2022/06/23 07:24:19;;;;;;;;;;;21.20;99.90;;;;;;5010769;28;19921;-69
2022/06/23 07:26:48;;;;;;;;;;;21.40;99.90;;;;;;5010989;28;19926;-69
2022/06/23 07:29:28;;;;;;;;;;;21.40;99.90;;;;;;5010971;28;19976;-69
2022/06/23 07:32:13;;;;;;;;;;;21.60;99.90;;;;;;5009579;28;20001;-69
2022/06/23 07:34:41;;;;;;;;;;;21.70;99.90;;;;;;5009337;28;19927;-73
2022/06/23 07:37:26;;;;;;;;;;;21.80;99.90;;;;;;5009361;28;20416;-73
2022/06/23 07:39:56;;;;;;;;;;;21.70;99.90;;;;;;4992453;28;19929;-72
2022/06/23 07:42:40;;;;;;;;;;;21.90;99.90;;;;;;5023434;28;20403;-72
2022/06/23 07:45:09;;;;;;;;;;;21.70;99.90;;;;;;5010414;28;19987;-72
2022/06/23 07:47:35;;;;;;;;;;;22.00;99.90;;;;;;5009913;28;20312;-72
2022/06/23 07:50:01;;;;;;;;;;;22.00;99.90;;;;;;4993237;28;19929;-72
2022/06/23 07:52:27;;;;;;;;;;;22.20;99.90;;;;;;5008960;28;19926;-73
2022/06/23 07:54:53;;;;;;;;;;;22.40;99.90;;;;;;5009962;28;19927;-72
2022/06/23 07:57:19;;;;;;;;;;;22.50;99.90;;;;;;5008653;28;19988;-73
2022/06/23 07:59:57;;;;;;;;;;;22.50;99.90;;;;;;5010572;28;19937;-72
2022/06/23 08:02:35;;;;;;;;;;;22.80;99.90;;;;;;5008937;28;19983;-73
2022/06/23 08:05:21;;;;;;;;;;;23.00;99.90;;;;;;5009360;28;19926;-74
2022/06/23 08:07:46;;;;;;;;;;;22.70;99.90;;;;;;5010920;28;19921;-71
2022/06/23 08:10:20;;;;;;;;;;;22.70;99.90;;;;;;5014591;28;19925;-72
2022/06/23 08:12:55;;;;;;;;;;;22.70;99.90;;;;;;5012360;28;19921;-73
2022/06/23 08:18:52;;;;;;;;;;;23.00;99.90;;;;;;5011882;28;19925;-72
2022/06/23 08:21:25;;;;;;;;;;;23.00;99.90;;;;;;5011804;28;19928;-73
2022/06/23 08:23:59;;;;;;;;;;;23.20;99.90;;;;;;5011766;28;19932;-74
2022/06/23 08:26:26;;;;;;;;;;;23.20;99.90;;;;;;4997099;28;20277;-74
2022/06/23 08:28:53;;;;;;;;;;;23.20;99.90;;;;;;4999609;28;19921;-74
2022/06/23 08:31:19;;;;;;;;;;;23.20;99.90;;;;;;5017128;28;20324;-74
2022/06/23 08:33:45;;;;;;;;;;;23.40;99.90;;;;;;4999944;28;19925;-74
2022/06/23 08:36:12;;;;;;;;;;;23.50;99.90;;;;;;5000180;28;19984;-74
2022/06/23 08:38:42;;;;;;;;;;;23.60;99.90;;;;;;5020231;28;19922;-73
2022/06/23 08:41:22;;;;;;;;;;;23.60;99.90;;;;;;5002625;28;19947;-73
2022/06/23 08:44:08;;;;;;;;;;;23.70;99.90;;;;;;4983657;28;19922;-74
2022/06/23 08:46:33;;;;;;;;;;;23.80;99.90;;;;;;5000517;28;19936;-73
2022/06/23 08:49:02;;;;;;;;;;;23.90;99.90;;;;;;5006673;28;19929;-73
2022/06/23 08:51:46;;;;;;;;;;;23.90;99.90;;;;;;5017153;28;19921;-73
2022/06/23 08:54:12;;;;;;;;;;;23.80;99.90;;;;;;5018176;28;19974;-74
2022/06/23 08:56:53;;;;;;;;;;;24.00;99.90;;;;;;5018108;28;19976;-73
2022/06/23 08:59:22;;;;;;;;;;;24.10;99.90;;;;;;5017887;28;19929;-74
2022/06/23 09:01:57;;;;;;;;;;;24.00;99.90;;;;;;5019013;28;19925;-74
2022/06/23 09:04:34;;;;;;;;;;;24.30;99.90;;;;;;5017514;28;19931;-74
2022/06/23 09:07:10;;;;;;;;;;;24.50;99.90;;;;;;5019760;28;20172;-74
2022/06/23 09:09:54;;;;;;;;;;;24.50;99.90;;;;;;5017382;28;19925;-74
2022/06/23 09:12:39;;;;;;;;;;;24.50;99.90;;;;;;5016278;28;20393;-74
2022/06/23 09:15:10;;;;;;;;;;;24.40;99.90;;;;;;5020242;28;19922;-74
2022/06/23 09:17:54;;;;;;;;;;;24.50;99.90;;;;;;5021174;28;19929;-73
2022/06/23 09:20:19;;;;;;;;;;;24.60;99.90;;;;;;5003244;28;20582;-74
2022/06/23 09:22:45;;;;;;;;;;;24.80;99.90;;;;;;5019914;28;19925;-74
2022/06/23 09:25:10;;;;;;;;;;;25.00;99.90;;;;;;5021225;28;19921;-74
2022/06/23 09:27:47;;;;;;;;;;;25.20;99.90;;;;;;5003472;28;19922;-75
2022/06/23 09:30:16;;;;;;;;;;;25.20;99.90;;;;;;5019890;28;19922;-75
2022/06/23 09:32:49;;;;;;;;;;;25.30;99.90;;;;;;5001237;28;20012;-74
2022/06/23 09:35:18;;;;;;;;;;;25.30;99.90;;;;;;5018903;28;19922;-75
2022/06/23 09:37:52;;;;;;;;;;;25.20;99.90;;;;;;5019632;28;19925;-75
2022/06/23 09:40:21;;;;;;;;;;;25.30;99.90;;;;;;5018674;28;20028;-74
2022/06/23 09:42:55;;;;;;;;;;;25.30;99.90;;;;;;5018652;28;20229;-75
2022/06/23 09:45:39;;;;;;;;;;;25.40;99.90;;;;;;5019012;28;20435;-75
2022/06/23 09:48:07;;;;;;;;;;;25.60;99.90;;;;;;5019720;28;19932;-74
2022/06/23 09:50:53;;;;;;;;;;;25.60;99.90;;;;;;5018982;28;20257;-74
2022/06/23 09:53:30;;;;;;;;;;;25.60;99.90;;;;;;5016643;28;19928;-74
2022/06/23 09:56:10;;;;;;;;;;;25.60;99.90;;;;;;5019212;28;19940;-74
2022/06/23 09:58:54;;;;;;;;;;;25.70;99.90;;;;;;5020005;28;19972;-74
2022/06/23 10:01:25;;;;;;;;;;;25.60;99.90;;;;;;5019372;28;19922;-74
2022/06/23 10:03:59;;;;;;;;;;;25.90;99.90;;;;;;5019689;28;20415;-75
2022/06/23 10:06:31;;;;;;;;;;;25.70;99.90;;;;;;5018000;28;19925;-75
2022/06/23 10:08:56;;;;;;;;;;;25.70;99.90;;;;;;5018835;28;19929;-75
2022/06/23 10:11:40;;;;;;;;;;;25.70;99.90;;;;;;5002799;28;19922;-76
2022/06/23 10:14:25;;;;;;;;;;;25.90;99.90;;;;;;5018420;28;19960;-74
2022/06/23 10:16:53;;;;;;;;;;;26.20;99.90;;;;;;5016003;28;19983;-76
2022/06/23 10:19:37;;;;;;;;;;;26.30;99.10;;;;;;5018057;28;19921;-76
2022/06/23 10:22:15;;;;;;;;;;;26.30;99.90;;;;;;5015020;28;20013;-75
2022/06/23 10:24:47;;;;;;;;;;;26.40;99.90;;;;;;5016505;28;19982;-76
2022/06/23 10:27:35;;;;;;;;;;;26.50;99.50;;;;;;5018934;28;19921;-75
2022/06/23 10:30:06;;;;;;;;;;;26.40;98.40;;;;;;5015434;28;19925;-74
2022/06/23 10:32:31;;;;;;;;;;;26.50;98.80;;;;;;5011299;28;20001;-75
2022/06/23 10:35:16;;;;;;;;;;;26.60;98.70;;;;;;5011455;28;19976;-75
2022/06/23 10:37:47;;;;;;;;;;;26.60;97.70;;;;;;5011452;28;19999;-74
2022/06/23 10:40:31;;;;;;;;;;;26.70;98.00;;;;;;4996339;28;19921;-74
2022/06/23 10:43:16;;;;;;;;;;;26.80;98.60;;;;;;5010314;28;19921;-75
2022/06/23 10:45:43;;;;;;;;;;;26.90;97.90;;;;;;5013685;28;19972;-75
2022/06/23 10:48:27;;;;;;;;;;;26.90;97.20;;;;;;5013718;28;20385;-75
2022/06/23 10:51:12;;;;;;;;;;;26.90;94.60;;;;;;4996831;28;20277;-74
2022/06/23 10:54:00;;;;;;;;;;;27.10;96.10;;;;;;5013747;28;20063;-76
2022/06/23 10:56:38;;;;;;;;;;;27.10;94.90;;;;;;5010542;28;20564;-74
2022/06/23 10:59:03;;;;;;;;;;;27.10;95.00;;;;;;5010456;28;19928;-75
2022/06/23 11:01:36;;;;;;;;;;;27.00;95.00;;;;;;5009973;28;20227;-74
2022/06/23 11:04:20;;;;;;;;;;;27.20;95.00;;;;;;5009710;28;19932;-74
2022/06/23 11:07:08;;;;;;;;;;;27.20;94.60;;;;;;5011725;28;19926;-74
2022/06/23 11:09:43;;;;;;;;;;;27.40;95.40;;;;;;5010173;28;19940;-73
2022/06/23 11:12:15;;;;;;;;;;;27.50;95.60;;;;;;5009708;28;20245;-75
2022/06/23 11:14:50;;;;;;;;;;;27.60;95.70;;;;;;5011875;28;20025;-74
2022/06/23 11:17:38;;;;;;;;;;;27.80;94.00;;;;;;5010692;28;20254;-74
2022/06/23 11:20:22;;;;;;;;;;;27.70;94.20;;;;;;5015380;28;19922;-74
2022/06/23 11:23:00;;;;;;;;;;;27.70;93.00;;;;;;5012923;28;20278;-74
2022/06/23 11:25:35;;;;;;;;;;;27.90;93.30;;;;;;5010966;28;19925;-74
2022/06/23 11:28:29;;;;;;;;;;;27.90;92.70;;;;;;5009777;28;19925;-74
2022/06/23 11:31:13;;;;;;;;;;;27.80;91.70;;;;;;5002419;28;19937;-74
2022/06/23 11:33:44;;;;;;;;;;;27.90;92.00;;;;;;5010521;28;19929;-74
2022/06/23 11:36:16;;;;;;;;;;;28.00;92.40;;;;;;5013581;28;20629;-74
2022/06/23 11:38:58;;;;;;;;;;;28.20;92.40;;;;;;5013333;28;19944;-74
2022/06/23 11:41:27;;;;;;;;;;;28.20;91.00;;;;;;5011270;28;20392;-74
2022/06/23 11:43:52;;;;;;;;;;;28.30;90.40;;;;;;5012484;28;19922;-74
2022/06/23 11:46:23;;;;;;;;;;;28.30;90.10;;;;;;5014385;28;20265;-75
2022/06/23 11:49:07;;;;;;;;;;;28.50;90.70;;;;;;5014906;28;20404;-74
2022/06/23 11:51:52;;;;;;;;;;;28.60;90.50;;;;;;5015208;28;19929;-74
2022/06/23 11:54:37;;;;;;;;;;;28.60;88.00;;;;;;5011613;28;20440;-74
2022/06/23 11:57:11;;;;;;;;;;;28.70;81.50;;;;;;4998823;28;20020;-74
2022/06/23 11:59:40;;;;;;;;;;;28.80;82.30;;;;;;5014975;28;19998;-75
2022/06/23 12:02:05;;;;;;;;;;;29.00;81.90;;;;;;4998776;28;19957;-75
2022/06/23 12:04:38;;;;;;;;;;;29.10;80.80;;;;;;5015955;28;19925;-74
2022/06/23 12:20:32;;;;;;;;;;;29.30;81.40;;;;;;5015211;28;19924;-74
2022/06/23 12:23:01;;;;;;;;;;;29.30;82.60;;;;;;5013626;28;19922;-74
2022/06/23 12:25:45;;;;;;;;;;;29.40;76.70;;;;;;5014564;28;19922;-73
2022/06/23 12:28:27;;;;;;;;;;;29.40;79.80;;;;;;5014677;28;19925;-73
2022/06/23 12:30:52;;;;;;;;;;;29.50;77.60;;;;;;5015676;28;19929;-74
2022/06/23 12:33:18;;;;;;;;;;;29.50;76.00;;;;;;5013099;28;20293;-74
2022/06/23 12:35:52;;;;;;;;;;;29.60;74.60;;;;;;5016161;28;20008;-74
2022/06/23 12:38:18;;;;;;;;;;;29.60;77.30;;;;;;5017051;28;19927;-74
2022/06/23 12:40:46;;;;;;;;;;;29.70;75.70;;;;;;5019118;28;20445;-74
2022/06/23 12:43:18;;;;;;;;;;;29.70;73.40;;;;;;5015689;28;19921;-74
2022/06/23 12:46:05;;;;;;;;;;;29.70;73.00;;;;;;5018458;28;19921;-73
2022/06/23 12:48:50;;;;;;;;;;;29.70;74.10;;;;;;5017782;28;19925;-74
2022/06/23 12:51:29;;;;;;;;;;;29.80;74.00;;;;;;5013686;28;19931;-74
2022/06/23 12:54:04;;;;;;;;;;;29.70;71.90;;;;;;5012820;28;20020;-74
2022/06/23 12:56:42;;;;;;;;;;;29.80;73.80;;;;;;4996661;28;19972;-74
2022/06/23 12:59:15;;;;;;;;;;;29.80;71.00;;;;;;4997649;28;19925;-74
2022/06/23 13:01:46;;;;;;;;;;;29.90;72.60;;;;;;5014528;28;19979;-75
2022/06/23 13:04:21;;;;;;;;;;;29.90;70.70;;;;;;5014942;28;20070;-74
2022/06/23 13:06:53;;;;;;;;;;;29.90;71.00;;;;;;5015933;28;19964;-74
2022/06/23 13:09:41;;;;;;;;;;;29.80;69.30;;;;;;5014112;28;19976;-75
2022/06/23 13:12:21;;;;;;;;;;;29.90;70.20;;;;;;5028783;28;19922;-74
2022/06/23 13:14:53;;;;;;;;;;;29.80;69.10;;;;;;5012108;28;20361;-74
2022/06/23 13:17:22;;;;;;;;;;;29.60;68.10;;;;;;5013053;28;19925;-73
2022/06/23 13:19:57;;;;;;;;;;;29.80;72.10;;;;;;5012950;28;19952;-73
2022/06/23 13:22:23;;;;;;;;;;;29.90;72.80;;;;;;5015377;28;19949;-73
2022/06/23 13:24:53;;;;;;;;;;;30.00;70.10;;;;;;5014128;28;19925;-73
2022/06/23 13:27:21;;;;;;;;;;;30.00;70.90;;;;;;5027971;28;20004;-73
2022/06/23 13:29:55;;;;;;;;;;;30.00;68.30;;;;;;5012145;28;20408;-74
2022/06/23 13:32:31;;;;;;;;;;;30.00;68.90;;;;;;5027751;28;19929;-74
2022/06/23 13:35:00;;;;;;;;;;;30.10;67.40;;;;;;5013574;28;20008;-74
2022/06/23 13:37:47;;;;;;;;;;;30.00;66.50;;;;;;4998637;28;19995;-71
2022/06/23 13:40:16;;;;;;;;;;;30.10;69.40;;;;;;4998097;28;19928;-72
2022/06/23 13:42:51;;;;;;;;;;;30.20;69.20;;;;;;5013931;28;19928;-72
2022/06/23 13:45:29;;;;;;;;;;;30.20;68.50;;;;;;5017145;28;19921;-72
2022/06/23 13:48:01;;;;;;;;;;;30.30;70.50;;;;;;5014441;28;19972;-72
2022/06/23 13:50:35;;;;;;;;;;;30.40;68.80;;;;;;5015019;28;19992;-75
2022/06/23 13:53:10;;;;;;;;;;;30.40;66.50;;;;;;5017294;28;19936;-76
2022/06/23 13:55:52;;;;;;;;;;;30.30;67.50;;;;;;5002966;28;19926;-74
2022/06/23 13:58:33;;;;;;;;;;;30.30;66.50;;;;;;5036068;28;19928;-74
2022/06/23 14:01:07;;;;;;;;;;;30.30;67.60;;;;;;5036234;28;19921;-75
2022/06/23 14:03:38;;;;;;;;;;;30.30;66.30;;;;;;5033419;28;20007;-74
2022/06/23 14:06:11;;;;;;;;;;;30.30;68.50;;;;;;4999725;28;19922;-73
2022/06/23 14:08:46;;;;;;;;;;;30.40;67.30;;;;;;5017789;28;20393;-75
2022/06/23 14:11:30;;;;;;;;;;;30.30;66.70;;;;;;5016686;28;20284;-74
2022/06/23 14:13:58;;;;;;;;;;;30.30;66.00;;;;;;5000225;28;20003;-74
2022/06/23 14:16:24;;;;;;;;;;;30.30;66.60;;;;;;5016801;28;19926;-74
2022/06/23 14:19:01;;;;;;;;;;;30.30;69.10;;;;;;5018036;28;19931;-74
2022/06/23 14:21:33;;;;;;;;;;;30.40;69.50;;;;;;5017561;28;19922;-75
2022/06/23 14:24:04;;;;;;;;;;;30.50;67.40;;;;;;5017493;28;20301;-75
2022/06/23 14:26:43;;;;;;;;;;;30.50;67.90;;;;;;5018358;28;19937;-75
2022/06/23 14:29:17;;;;;;;;;;;30.50;66.50;;;;;;5033747;28;19922;-74
2022/06/23 14:32:09;;;;;;;;;;;30.40;66.90;;;;;;5016925;28;19922;-75
2022/06/23 14:34:36;;;;;;;;;;;30.50;66.80;;;;;;5006634;28;19922;-74
2022/06/23 14:37:06;;;;;;;;;;;30.50;68.80;;;;;;5017377;28;19948;-75
2022/06/23 14:39:35;;;;;;;;;;;30.40;66.80;;;;;;5016820;28;20296;-75
2022/06/23 14:42:21;;;;;;;;;;;30.50;67.30;;;;;;5016360;28;20011;-75
2022/06/23 14:45:10;;;;;;;;;;;30.50;68.80;;;;;;5016189;28;20048;-75
2022/06/23 14:47:39;;;;;;;;;;;30.60;68.20;;;;;;5015633;28;19971;-75
2022/06/23 14:50:14;;;;;;;;;;;30.50;64.70;;;;;;5015694;28;19991;-75
2022/06/23 14:52:45;;;;;;;;;;;30.50;67.80;;;;;;5014979;28;19971;-75
2022/06/23 14:55:23;;;;;;;;;;;30.50;68.00;;;;;;5032195;28;19936;-74
2022/06/23 14:57:49;;;;;;;;;;;30.50;66.30;;;;;;5015399;28;19925;-75
2022/06/23 15:00:18;;;;;;;;;;;30.50;67.80;;;;;;5015385;28;19921;-74
2022/06/23 15:03:03;;;;;;;;;;;30.50;65.30;;;;;;5032469;28;19928;-75
2022/06/23 15:05:35;;;;;;;;;;;30.40;64.80;;;;;;5017440;28;20004;-74
2022/06/23 15:08:04;;;;;;;;;;;30.40;66.10;;;;;;5030459;28;19979;-74
2022/06/23 15:10:32;;;;;;;;;;;30.50;66.50;;;;;;5016087;28;19925;-75
2022/06/23 15:13:00;;;;;;;;;;;30.50;65.30;;;;;;5015073;28;19951;-71
2022/06/23 15:15:37;;;;;;;;;;;30.50;66.30;;;;;;4994963;28;19926;-71